createdAt,value
2022-11-23T00:01:07.704Z,12.45
2022-11-23T00:06:55.233Z,12.53
2022-11-23T00:10:03.089Z,12.56
2022-11-23T00:13:05.307Z,12.58
2022-11-23T00:15:36.281Z,12.59
2022-11-23T00:18:20.169Z,12.63
2022-11-23T00:21:15.899Z,12.72
2022-11-23T00:24:34.897Z,12.81
2022-11-23T00:27:07.684Z,12.87
2022-11-23T00:29:47.052Z,12.93
2022-11-23T00:32:32.878Z,12.99
2022-11-23T00:38:12.958Z,13.06
2022-11-23T00:41:23.923Z,13.11
2022-11-23T00:43:58.717Z,13.00
2022-11-23T00:46:32.049Z,13.08
2022-11-23T00:49:11.831Z,13.08
2022-11-23T00:52:03.061Z,13.10
2022-11-23T00:54:33.899Z,13.13
2022-11-23T01:01:38.232Z,13.15
2022-11-23T01:04:18.700Z,13.16
2022-11-23T01:09:42.643Z,13.24
2022-11-23T01:12:27.826Z,13.25
2022-11-23T01:15:06.386Z,13.26
2022-11-23T01:18:04.247Z,13.24
2022-11-23T01:20:42.850Z,13.26
2022-11-23T01:23:31.648Z,13.29
2022-11-23T01:26:21.233Z,13.28
2022-11-23T01:32:29.975Z,13.34
2022-11-23T01:35:08.878Z,13.20
2022-11-23T01:37:42.580Z,13.30
2022-11-23T01:40:24.543Z,13.33
2022-11-23T01:43:02.197Z,13.30
2022-11-23T01:48:47.965Z,13.26
2022-11-23T01:51:47.113Z,13.27
2022-11-23T01:54:24.003Z,13.25
2022-11-23T01:57:09.655Z,13.23
2022-11-23T01:59:52.022Z,13.24
2022-11-23T02:02:55.622Z,13.23
2022-11-23T02:05:38.886Z,13.07
2022-11-23T02:08:27.173Z,13.22
2022-11-23T02:14:10.822Z,13.28
2022-11-23T02:16:55.339Z,13.32
2022-11-23T02:23:30.712Z,13.37
2022-11-23T02:26:18.931Z,13.46
2022-11-23T02:31:59.867Z,13.54
2022-11-23T02:34:34.416Z,13.62
2022-11-23T02:37:32.498Z,13.71
2022-11-23T02:40:06.732Z,13.74
2022-11-23T02:42:51.866Z,13.78
2022-11-23T02:45:33.435Z,13.80
2022-11-23T02:48:24.787Z,13.87
2022-11-23T02:51:12.144Z,13.88
2022-11-23T02:54:01.608Z,13.95
2022-11-23T02:57:31.167Z,14.01
2022-11-23T03:00:07.407Z,13.97
2022-11-23T03:02:51.341Z,13.90
2022-11-23T03:05:23.473Z,13.99
2022-11-23T03:08:01.802Z,14.03
2022-11-23T03:10:37.825Z,14.04
2022-11-23T03:13:18.847Z,14.05
2022-11-23T03:16:03.591Z,14.03
2022-11-23T03:18:36.440Z,13.87
2022-11-23T03:21:13.468Z,14.04
2022-11-23T03:23:48.620Z,13.89
2022-11-23T03:26:20.256Z,14.04
2022-11-23T03:29:15.320Z,14.04
2022-11-23T03:32:01.274Z,14.05
2022-11-23T03:34:53.648Z,14.02
2022-11-23T03:37:38.746Z,14.02
2022-11-23T03:40:19.966Z,13.96
2022-11-23T03:43:40.933Z,13.96
2022-11-23T03:50:07.799Z,13.96
2022-11-23T03:57:04.236Z,14.01
2022-11-23T04:10:12.101Z,13.97
2022-11-23T04:30:04.489Z,14.15
2022-11-23T04:36:24.959Z,14.19
2022-11-23T04:39:05.536Z,14.23
2022-11-23T04:45:16.270Z,14.33
2022-11-23T04:48:17.146Z,14.37
2022-11-23T04:53:58.520Z,14.70
2022-11-23T04:56:40.232Z,14.80
2022-11-23T04:59:22.110Z,14.86
2022-11-23T05:02:24.416Z,14.73
2022-11-23T05:05:34.764Z,14.74
2022-11-23T05:08:30.472Z,14.73
2022-11-23T05:11:55.892Z,14.88
2022-11-23T05:14:37.849Z,14.95
2022-11-23T05:17:55.164Z,14.95
2022-11-23T05:23:26.396Z,14.71
2022-11-23T05:26:11.727Z,14.54
2022-11-23T05:29:02.396Z,14.82
2022-11-23T05:35:34.807Z,14.93
2022-11-23T05:38:26.627Z,15.01
2022-11-23T05:41:20.344Z,15.05
2022-11-23T05:44:00.954Z,14.96
2022-11-23T05:52:50.498Z,14.74
2022-11-23T06:02:18.788Z,14.92
2022-11-23T06:05:17.724Z,14.88
2022-11-23T06:08:11.854Z,15.06
2022-11-23T06:10:59.490Z,15.18
2022-11-23T06:13:53.817Z,15.12
2022-11-23T06:16:40.831Z,15.19
2022-11-23T06:20:05.273Z,15.14
2022-11-23T06:22:58.475Z,15.01
2022-11-23T06:26:01.162Z,14.70
2022-11-23T06:31:46.832Z,13.76
2022-11-23T06:35:06.042Z,13.51
2022-11-23T06:39:04.248Z,13.51
2022-11-23T06:48:50.542Z,13.79
2022-11-23T06:56:09.215Z,13.83
2022-11-23T06:58:47.229Z,13.83
2022-11-23T07:01:32.041Z,13.85
2022-11-23T07:05:23.262Z,13.91
2022-11-23T07:07:56.863Z,13.94
2022-11-23T07:14:29.347Z,14.16
2022-11-23T07:17:17.649Z,14.10
2022-11-23T07:20:23.194Z,14.36
2022-11-23T07:23:35.769Z,14.43
2022-11-23T07:26:15.908Z,14.37
2022-11-23T07:28:50.469Z,14.55
2022-11-23T07:31:37.403Z,14.62
2022-11-23T07:34:23.971Z,14.79
2022-11-23T07:37:02.308Z,14.77
2022-11-23T07:39:57.017Z,14.81
2022-11-23T07:46:15.230Z,14.85
2022-11-23T07:55:29.944Z,14.82
2022-11-23T07:58:13.268Z,15.08
2022-11-23T08:00:50.261Z,15.02
2022-11-23T08:03:29.769Z,15.17
2022-11-23T08:06:17.449Z,15.16
2022-11-23T08:09:21.433Z,15.16
2022-11-23T08:12:14.969Z,15.26
2022-11-23T08:15:24.023Z,15.29
2022-11-23T08:18:15.911Z,15.28
2022-11-23T08:21:21.660Z,15.30
2022-11-23T08:24:21.852Z,15.36
2022-11-23T08:27:04.268Z,15.45
2022-11-23T08:33:10.356Z,15.44
2022-11-23T08:35:44.722Z,15.45
2022-11-23T09:06:37.262Z,15.84
2022-11-23T09:09:18.431Z,15.83
2022-11-23T09:12:23.414Z,15.81
2022-11-23T09:29:10.228Z,15.55
2022-11-23T09:35:39.315Z,15.78
2022-11-23T09:38:54.615Z,15.57
2022-11-23T09:45:07.652Z,15.48
2022-11-23T09:47:55.349Z,15.26
2022-11-23T09:50:33.286Z,15.40
2022-11-23T09:53:22.722Z,15.48
2022-11-23T09:55:56.380Z,15.51
2022-11-23T09:58:26.362Z,15.73
2022-11-23T10:01:34.305Z,15.90
2022-11-23T10:04:29.303Z,15.88
2022-11-23T10:07:33.735Z,16.09
2022-11-23T10:10:26.883Z,16.31
2022-11-23T10:13:15.084Z,16.36
2022-11-23T10:15:55.526Z,16.32
2022-11-23T10:21:51.131Z,16.21
2022-11-23T10:28:52.269Z,16.34
2022-11-23T10:43:31.729Z,16.16
2022-11-23T10:47:38.841Z,16.15
2022-11-23T11:06:14.305Z,16.07
2022-11-23T11:09:41.228Z,16.18
2022-11-23T11:17:02.473Z,15.86
2022-11-23T12:35:10.075Z,16.46
2022-11-23T12:44:57.592Z,16.57
2022-11-23T12:47:43.306Z,16.69
2022-11-23T12:53:34.885Z,16.64
2022-11-23T12:56:25.506Z,16.85
2022-11-23T12:59:30.500Z,16.89
2022-11-23T13:02:06.041Z,16.81
2022-11-23T13:05:06.401Z,16.93
2022-11-23T13:12:18.338Z,16.82
2022-11-23T13:15:18.784Z,16.91
2022-11-23T13:32:39.645Z,16.93
2022-11-23T13:35:48.208Z,17.05
2022-11-23T13:38:32.794Z,16.91
2022-11-23T13:41:17.676Z,16.83
2022-11-23T13:43:54.304Z,16.74
2022-11-23T13:46:29.050Z,16.73
2022-11-23T13:49:30.497Z,16.64
2022-11-23T13:52:08.712Z,16.38
2022-11-23T13:54:55.037Z,16.46
2022-11-23T13:57:29.216Z,16.58
2022-11-23T14:00:38.302Z,16.45
2022-11-23T14:06:47.629Z,16.48
2022-11-23T14:09:22.584Z,16.42
2022-11-23T14:12:17.867Z,16.45
2022-11-23T14:15:03.014Z,16.40
2022-11-23T14:17:52.810Z,16.43
2022-11-23T14:20:42.005Z,16.60
2022-11-23T14:23:28.124Z,16.67
2022-11-23T14:26:04.346Z,16.70
2022-11-23T14:28:44.215Z,16.70
2022-11-23T14:31:35.078Z,16.61
2022-11-23T14:34:12.797Z,16.66
2022-11-23T14:37:05.671Z,16.66
2022-11-23T14:40:08.354Z,16.65
2022-11-23T14:42:56.922Z,16.80
2022-11-23T14:48:56.251Z,16.98
2022-11-23T14:51:34.718Z,16.93
2022-11-23T14:54:15.476Z,16.90
2022-11-23T14:56:49.648Z,16.85
2022-11-23T14:59:24.409Z,16.73
2022-11-23T15:02:27.146Z,16.73
2022-11-23T15:05:31.244Z,16.70
2022-11-23T15:08:26.166Z,16.57
2022-11-23T15:11:28.827Z,16.80
2022-11-23T15:33:14.334Z,16.39
2022-11-23T15:54:11.930Z,16.25
2022-11-23T17:20:18.893Z,15.43
2022-11-23T17:22:52.228Z,15.37
2022-11-23T17:28:26.152Z,15.44
2022-11-23T17:33:40.700Z,15.65
2022-11-23T17:39:12.694Z,15.60
2022-11-23T18:08:24.527Z,15.70
2022-11-23T18:11:35.031Z,15.56
2022-11-23T18:30:03.352Z,15.76
2022-11-23T18:32:57.457Z,15.69
2022-11-23T19:20:11.415Z,14.16
2022-11-23T19:27:48.615Z,14.20
2022-11-23T19:57:46.609Z,15.43
2022-11-23T20:17:43.117Z,14.86
2022-11-23T20:28:22.430Z,13.69
2022-11-23T20:35:50.330Z,13.38
2022-11-23T20:47:03.593Z,12.97
2022-11-23T21:24:40.708Z,12.74
2022-11-23T21:41:52.906Z,13.69
2022-11-23T21:48:29.108Z,13.89
2022-11-23T21:58:44.079Z,14.44
2022-11-23T22:01:37.557Z,14.53
2022-11-23T22:04:47.263Z,14.62
2022-11-23T22:20:56.983Z,14.88
2022-11-23T22:24:15.453Z,14.87
2022-11-23T22:31:07.594Z,14.82
2022-11-23T22:37:35.520Z,14.87
2022-11-23T22:44:47.430Z,14.94
2022-11-23T22:48:01.191Z,15.01
2022-11-23T22:50:45.761Z,14.99
2022-11-23T23:04:05.414Z,15.14
2022-11-23T23:21:00.025Z,14.86
2022-11-23T23:24:14.753Z,14.83
2022-11-23T23:30:18.315Z,14.89
2022-11-23T23:36:14.076Z,15.00
2022-11-23T23:39:14.296Z,14.97
2022-11-23T23:42:39.162Z,14.95
2022-11-23T23:45:39.814Z,14.92
2022-11-23T23:48:18.615Z,14.89
2022-11-23T23:51:09.519Z,14.99
